WEATHER DATA

TODAY
Time Temp. Dewp. Hum. Wind dir Wind speed Wind gust Bar. 1h Prec. 24h Prec.
00:09 22.3 10.5 47 217 0.3 1.1 1020.6 0.0000 0.0000
00:18 22.2 10.4 47 217 0.3 1.1 1020.8 0.0000 0.0000
00:28 22.1 10.6 48 216 0.3 1.1 1020.5 0.0000 0.0000
00:38 22 10.5 48 220 0.3 1.1 1020.6 0.0000 0.0000
00:49 22 10.5 48 225 0.6 1.4 1020.4 0.0000 0.0000
00:58 21.8 10.6 49 228 0.3 1.4 1020.5 0.0000 0.0000
01:08 21.7 10.5 49 225 0.6 1.1 1020.5 0.0000 0.0000
01:19 21.6 10.7 50 217 0.6 1.1 1020.4 0.0000 0.0000
01:29 21.4 10.6 50 225 0.6 1.4 1020.5 0.0000 0.0000
01:39 21.3 10.8 51 228 0.3 1.1 1020.6 0.0000 0.0000
02:00 21.1 10.9 52 225 0.6 1.1 1020.6 0.0000 0.0000
02:10 21 10.8 52 218 0.6 1.1 1020.7 0.0000 0.0000
02:19 20.9 11 53 236 0.6 1.9 1020.6 0.0000 0.0000
02:30 20.7 11.1 54 225 0.3 1.1 1020.6 0.0000 0.0000
02:41 20.6 11 54 213 0.3 0.8 1020.8 0.0000 0.0000
02:52 20.5 10.9 54 220 0.3 1.1 1020.7 0.0000 0.0000
03:02 20.4 11.1 55 90 0.3 0.6 1020.7 0.0000 0.0000
03:11 20.2 10.9 55 90 0.3 0.6 1020.9 0.0000 0.0000
03:22 19.9 10.9 56 90 0.3 0.6 1020.9 0.0000 0.0000
03:32 19.6 10.9 57 90 0.3 0.6 1020.9 0.0000 0.0000
03:42 19.4 10.7 57 90 0.3 0.6 1020.9 0.0000 0.0000
03:52 19.2 10.7 58 90 0.3 0.6 1020.9 0.0000 0.0000
04:02 19 10.8 59 90 0.3 0.6 1020.9 0.0000 0.0000
04:12 18.9 10.7 59 126 0.3 0.6 1020.8 0.0000 0.0000
04:22 18.7 10.8 60 156 0.3 0.6 1020.7 0.0000 0.0000
04:33 18.6 10.9 61 195 0.3 0.8 1020.6 0.0000 0.0000
04:42 18.5 10.8 61 175 0.3 0.8 1020.4 0.0000 0.0000
04:52 18.5 11.1 62 180 0.3 0.6 1020.4 0.0000 0.0000
05:02 18.4 11 62 135 0.3 0.6 1020.4 0.0000 0.0000
05:13 18.2 11 63 156 0.3 0.6 1020.3 0.0000 0.0000
05:23 18.1 11 63 90 0.3 0.6 1020.4 0.0000 0.0000
05:33 17.9 10.8 63 90 0.3 0.6 1020.4 0.0000 0.0000
05:43 17.8 10.9 64 90 0.3 0.6 1020.6 0.0000 0.0000
06:03 17.6 11 65 0 0.6 1020.5 0.0000 0.0000
06:13 17.5 10.9 65 144 0.3 0.6 1020.6 0.0000 0.0000
06:24 17.5 11.1 66 210 0.3 0.8 1020.6 0.0000 0.0000
06:33 17.5 11.1 66 161 0.3 0.6 1020.5 0.0000 0.0000
06:43 17.4 11 66 173 0.3 0.6 1020.6 0.0000 0.0000
06:54 17.4 11.2 67 225 0.3 0.8 1020.8 0.0000 0.0000
07:04 17.6 11.4 67 188 0.3 0.6 1021 0.0000 0.0000
07:15 18 11.8 67 186 0.3 0.8 1021.1 0.0000 0.0000
07:24 18.4 11.9 66 90 0.3 0.6 1021.2 0.0000 0.0000
07:35 18.8 12.3 66 161 0.3 0.6 1021.2 0.0000 0.0000
07:45 19.2 12.5 65 90 0.3 0.6 1021.3 0.0000 0.0000
07:55 19.7 12.9 65 0 0.6 1021.4 0.0000 0.0000
08:04 20 13 64 0 0.6 1021.3 0.0000 0.0000
08:15 20.2 13.2 64 0 0.6 1021.6 0.0000 0.0000
08:26 20.5 13.5 64 0 0.3 1021.4 0.0000 0.0000
08:35 20.7 13.7 64 90 0.3 0.8 1021.6 0.0000 0.0000
08:45 20.8 13.7 64 45 0.3 0.6 1021.6 0.0000 0.0000
08:56 20.9 14.1 65 90 0.3 0.6 1021.6 0.0000 0.0000
09:06 21 14.4 66 236 0.6 1.7 1021.6 0.0000 0.0000
09:15 21.2 14.8 67 218 0.8 1.9 1021.5 0.0000 0.0000
09:26 21.5 15.1 67 225 0.3 1.1 1021.6 0.0000 0.0000
09:36 21.7 15.1 66 235 0.6 2.8 1021.6 0.0000 0.0000
09:46 21.9 15 65 217 0.6 1.9 1021.7 0.0000 0.0000
09:56 22.1 15.2 65 229 0.8 3.1 1021.8 0.0000 0.0000
10:06 22.3 15.2 64 222 0.6 2.2 1021.8 0.0000 0.0000
10:15 22.6 15.2 63 239 0.6 2.5 1021.9 0.0000 0.0000
10:25 22.8 15.4 63 227 0.6 1.9 1021.8 0.0000 0.0000
10:36 23 15.3 62 229 0.8 2.2 1021.8 0.0000 0.0000
10:46 23.1 15.4 62 244 0.8 1.9 1021.8 0.0000 0.0000
10:56 23.2 15.5 62 251 0.8 2.2 1021.9 0.0000 0.0000
11:06 23.4 15.7 62 238 0.8 2.2 1021.9 0.0000 0.0000
11:16 23.5 15.6 61 243 0.6 1.9 1021.9 0.0000 0.0000
11:26 23.6 15.4 60 231 0.8 3.1 1021.9 0.0000 0.0000
11:36 23.6 15.4 60 237 0.6 1.4 1021.8 0.0000 0.0000
11:47 23.6 15.6 61 225 0.8 2.2 1021.9 0.0000 0.0000
11:57 23.6 15.6 61 241 0.6 1.4 1021.9 0.0000 0.0000
12:06 23.7 15.7 61 237 0.8 2.2 1021.9 0.0000 0.0000
12:16 23.8 15.8 61 236 0.8 2.5 1022 0.0000 0.0000
12:27 24.1 16.1 61 227 0.8 2.5 1021.8 0.0000 0.0000
12:37 24.3 16 60 225 0.6 2.5 1021.9 0.0000 0.0000
12:47 24.4 16.1 60 217 0.6 1.7 1021.8 0.0000 0.0000
12:57 24.4 16.1 60 234 0.6 2.5 1022 0.0000 0.0000
13:07 24.3 16.3 61 255 0.8 3.3 1022 0.0000 0.0000
13:17 24.3 16.3 61 256 0.8 2.2 1022 0.0000 0.0000
13:27 24.4 16.1 60 257 1.1 2.8 1021.8 0.0000 0.0000
13:38 24.5 16.2 60 247 0.6 1.9 1021.9 0.0000 0.0000
13:48 24.6 16.3 60 254 0.8 2.2 1021.8 0.0000 0.0000
14:08 24.9 16.3 59 245 0.6 2.2 1021.7 0.0000 0.0000
14:18 24.9 15.8 57 238 0.8 2.8 1021.8 0.0000 0.0000
14:28 24.9 16.1 58 236 0.8 1.9 1021.8 0.0000 0.0000
14:38 25 16.2 58 236 0.6 2.2 1021.8 0.0000 0.0000
14:49 25.1 16.3 58 251 0.8 3.1 1021.9 0.0000 0.0000
14:59 25.3 16.2 57 239 1.1 2.8 1021.8 0.0000 0.0000
15:09 25.5 16.1 56 242 0.8 2.2 1021.7 0.0000 0.0000
15:19 25.5 15.8 55 254 1.4 3.3 1021.8 0.0000 0.0000
15:29 25.5 16.1 56 243 1.1 2.8 1021.7 0.0000 0.0000
15:36 25.6 16.2 56 232 0.8 2.5 1021.6 0.0000 0.0000
15:47 25.6 16.2 56 247 0.8 2.2 1021.6 0.0000 0.0000
15:57 25.7 16.3 56 236 1.1 2.8 1021.7 0.0000 0.0000
16:07 25.7 16.3 56 241 0.6 1.7 1021.7 0.0000 0.0000
16:17 25.7 16 55 250 1.1 2.2 1021.7 0.0000 0.0000
16:28 25.6 15.9 55 243 0.6 1.7 1021.6 0.0000 0.0000
16:38 25.7 16 55 244 0.8 2.8 1021.7 0.0000 0.0000
16:48 25.7 16 55 230 0.6 1.9 1021.6 0.0000 0.0000
16:58 25.7 16.3 56 248 0.8 3.6 1021.6 0.0000 0.0000
17:09 25.7 16 55 246 0.8 2.8 1021.4 0.0000 0.0000
17:19 25.6 16.2 56 230 0.8 2.5 1021.6 0.0000 0.0000
17:29 25.5 16.1 56 252 1.1 2.8 1021.5 0.0000 0.0000
17:39 25.4 16.3 57 252 1.1 2.5 1021.6 0.0000 0.0000
17:49 25.2 16.1 57 258 0.8 1.9 1021.5 0.0000 0.0000
17:59 25.1 16.3 58 248 0.8 2.2 1021.5 0.0000 0.0000
18:09 25 16.2 58 260 1.1 3.1 1021.5 0.0000 0.0000
18:20 24.9 16.1 58 245 0.6 1.7 1021.5 0.0000 0.0000
18:30 24.8 16.2 59 256 0.8 2.8 1021.6 0.0000 0.0000
18:40 24.7 16.2 59 255 1.1 2.8 1021.5 0.0000 0.0000
18:50 24.6 16.3 60 247 0.8 2.2 1021.6 0.0000 0.0000
19:10 24.4 16.1 60 240 0.8 1.7 1021.6 0.0000 0.0000
19:31 24.3 16 60 240 0.6 1.7 1021.5 0.0000 0.0000
19:40 24.3 16 60 231 0.6 1.1 1021.6 0.0000 0.0000
19:50 24.2 16.2 61 251 0.6 1.9 1021.6 0.0000 0.0000
20:00 24.1 16.1 61 239 0.6 1.9 1021.6 0.0000 0.0000

DAY STATISTIC

2018-08-20
TEMPERATURE
AVERAGE
22.2
HIGH
25.7
15:57
LOW
17.4
06:43
PRESSURE
AVERAGE
1021.3
HIGH
1022.0
12:16
LOW
1020.3
05:13
DEWPOINT
AVERAGE
13.8
HIGH
16.3
13:07
LOW
10.4
00:18
HUMIDITY
AVERAGE
59
HIGH
67
06:54
LOW
47
00:09
WIND SPEED
AVERAGE
0.6
HIGH
1.4
15:19
WIND GUST
AVERAGE
1.6
HIGH
3.6
16:58
WIND DIRECTION
PREVAILING
SW
56.1%
N
0.0
NE
0.9
E
12.3
SE
4.4
S
7.0
SW
56.1
W
14.9
NW
0.0
PRECIPITATION
RAIN HOUR
0.0
RAIN DAY
0.0
TEMPERATURE (°C)
LOW
17.4
HIGH
25.7
AVERAGE
22.2
PRESSURE (hpa)
LOW
1020.3
HIGH
1022.0
AVERAGE
1021.3
DEVICE